Time;durP1;ratioP1;P1;durP2;ratioP2;P2;SDS_P1;SDS_P2;PMS_P1;PMS_P2;Temp;Humidity;BMP_temperature;BMP_pressure;BME280_temperature;BME280_humidity;BME280_pressure;Samples;Min_cycle;Max_cycle;Signal;HPM_P1;HPM_P2
2022/09/26 00:01:05;;;;;;;11.23;10.17;;;11.60;99.90;;;;;;6150465;23;20591;-93
2022/09/26 00:03:32;;;;;;;14.47;9.80;;;11.50;99.90;;;;;;6150834;23;21103;-92
2022/09/26 00:06:02;;;;;;;10.80;9.87;;;11.60;99.90;;;;;;6150529;23;20599;-92
2022/09/26 00:08:29;;;;;;;11.77;10.67;;;11.60;99.90;;;;;;6151820;23;20614;-92
2022/09/26 00:10:57;;;;;;;12.73;10.60;;;11.60;99.90;;;;;;6151501;23;20581;-93
2022/09/26 00:13:25;;;;;;;11.10;9.50;;;11.60;99.90;;;;;;6154693;23;21205;-93
2022/09/26 00:15:52;;;;;;;10.87;9.43;;;11.80;99.90;;;;;;6168204;23;20652;-93
2022/09/26 00:18:20;;;;;;;11.10;10.10;;;11.50;99.90;;;;;;6178729;22;20664;-93
2022/09/26 00:20:48;;;;;;;10.10;9.10;;;11.30;99.90;;;;;;6177350;22;20533;-93
2022/09/26 00:23:17;;;;;;;11.50;10.27;;;11.60;99.90;;;;;;6175871;22;20588;-94
2022/09/26 00:25:47;;;;;;;12.60;10.07;;;11.70;99.90;;;;;;6174639;22;20585;-94
2022/09/26 00:28:16;;;;;;;11.00;9.57;;;11.50;99.90;;;;;;6169784;23;20663;-92
2022/09/26 00:30:43;;;;;;;12.17;11.03;;;11.10;99.90;;;;;;6152130;23;20623;-93
2022/09/26 00:33:10;;;;;;;11.67;10.63;;;11.00;99.90;;;;;;6150435;23;20593;-93
2022/09/26 00:35:39;;;;;;;10.90;10.00;;;11.20;99.90;;;;;;6149508;23;20585;-92
2022/09/26 00:38:07;;;;;;;11.03;10.10;;;11.20;99.90;;;;;;6150482;23;20584;-93
2022/09/26 00:40:35;;;;;;;13.73;9.87;;;11.20;99.90;;;;;;6150700;23;20579;-93
2022/09/26 00:43:02;;;;;;;10.97;9.87;;;11.00;99.90;;;;;;6150237;23;20558;-93
2022/09/26 00:45:32;;;;;;;10.80;9.40;;;11.00;99.90;;;;;;6150668;23;20591;-93
2022/09/26 00:48:02;;;;;;;11.93;10.83;;;11.00;99.90;;;;;;6149443;23;21035;-93
2022/09/26 00:50:32;;;;;;;12.50;11.13;;;10.80;99.90;;;;;;6150206;23;20987;-93
2022/09/26 00:53:02;;;;;;;13.90;11.00;;;11.00;99.90;;;;;;6149586;23;20626;-93
2022/09/26 00:55:35;;;;;;;13.30;10.63;;;10.70;99.90;;;;;;6147898;23;20560;-92
2022/09/26 00:58:06;;;;;;;12.07;10.87;;;11.00;99.90;;;;;;6150352;23;20612;-93
2022/09/26 01:00:36;;;;;;;12.00;11.00;;;10.90;99.90;;;;;;6150299;23;20532;-93
2022/09/26 01:03:03;;;;;;;12.20;11.00;;;10.50;99.90;;;;;;6149560;23;20573;-93
2022/09/26 01:05:34;;;;;;;12.10;11.13;;;10.60;99.90;;;;;;6150340;23;20610;-92
2022/09/26 01:08:02;;;;;;;14.43;11.30;;;11.00;99.90;;;;;;6156875;23;20715;-92
2022/09/26 01:10:30;;;;;;;12.00;10.90;;;10.70;99.90;;;;;;6155382;23;21145;-93
2022/09/26 01:13:07;;;;;;;12.27;11.07;;;10.30;99.90;;;;;;6154815;23;20577;-93
2022/09/26 01:15:34;;;;;;;14.00;12.60;;;10.60;99.90;;;;;;6155866;23;20896;-94
2022/09/26 01:18:02;;;;;;;14.50;13.10;;;10.50;99.90;;;;;;6154608;23;20634;-92
2022/09/26 01:20:38;;;;;;;19.83;14.70;;;10.50;99.90;;;;;;6153103;23;20593;-92
2022/09/26 01:24:01;;;;;;;15.57;13.83;;;10.40;99.90;;;;;;6151690;23;20532;-93
2022/09/26 01:27:09;;;;;;;13.87;12.53;;;10.40;99.90;;;;;;6037378;23;20599;-94
2022/09/26 01:30:07;;;;;;;14.40;13.13;;;10.40;99.90;;;;;;5972800;23;20600;-93
2022/09/26 01:33:01;;;;;;;15.93;14.33;;;10.40;99.90;;;;;;6141601;23;20600;-93
2022/09/26 01:35:51;;;;;;;14.00;12.70;;;10.50;99.90;;;;;;6148775;23;21073;-94
2022/09/26 01:38:26;;;;;;;14.93;13.33;;;10.50;99.90;;;;;;6150834;23;20608;-95
2022/09/26 01:41:07;;;;;;;14.53;13.23;;;9.80;99.90;;;;;;6149055;23;21039;-93
2022/09/26 01:43:44;;;;;;;14.77;13.30;;;9.80;99.90;;;;;;6148554;23;20516;-92
2022/09/26 01:46:22;;;;;;;18.60;14.77;;;9.80;99.90;;;;;;6146549;23;21072;-92
2022/09/26 01:48:55;;;;;;;17.90;15.57;;;10.00;99.90;;;;;;6147863;23;21291;-93
2022/09/26 01:51:27;;;;;;;17.20;15.57;;;10.10;99.90;;;;;;6149103;23;20548;-92
2022/09/26 01:53:59;;;;;;;16.87;15.17;;;10.10;99.90;;;;;;6150556;23;20593;-93
2022/09/26 01:56:31;;;;;;;16.83;15.13;;;9.60;99.90;;;;;;6149060;23;20577;-93
2022/09/26 01:59:03;;;;;;;17.90;16.20;;;9.60;99.90;;;;;;6149604;23;20603;-93
2022/09/26 02:01:37;;;;;;;18.10;15.50;;;9.90;99.90;;;;;;6150268;23;21135;-93
2022/09/26 02:04:09;;;;;;;17.57;15.80;;;9.50;99.90;;;;;;6152765;23;20583;-93
2022/09/26 02:06:40;;;;;;;16.70;14.70;;;9.80;99.90;;;;;;6161292;23;20914;-92
2022/09/26 02:09:11;;;;;;;17.47;15.63;;;9.80;99.90;;;;;;6176002;22;20613;-93
2022/09/26 02:11:41;;;;;;;23.60;17.80;;;9.80;99.90;;;;;;6178061;22;20560;-92
2022/09/26 02:14:13;;;;;;;17.47;15.67;;;9.60;99.90;;;;;;6175151;22;20626;-93
2022/09/26 02:16:46;;;;;;;17.23;15.57;;;9.90;99.90;;;;;;6165847;22;20663;-94
2022/09/26 02:19:18;;;;;;;16.63;15.00;;;9.50;99.90;;;;;;6163829;23;20618;-93
2022/09/26 02:21:48;;;;;;;17.70;15.97;;;9.60;99.90;;;;;;6158845;23;20592;-92
2022/09/26 02:24:15;;;;;;;16.53;14.83;;;9.90;99.90;;;;;;6149113;23;20576;-93
2022/09/26 02:26:42;;;;;;;15.60;14.10;;;9.90;99.90;;;;;;6149942;23;20590;-92
2022/09/26 02:29:12;;;;;;;18.87;15.13;;;9.90;99.90;;;;;;6148705;23;20620;-93
2022/09/26 02:31:45;;;;;;;16.43;14.40;;;10.10;99.90;;;;;;6149440;23;20585;-91
2022/09/26 02:34:13;;;;;;;16.60;14.97;;;9.80;99.90;;;;;;6148294;23;20565;-92
2022/09/26 02:36:40;;;;;;;20.27;15.33;;;9.70;99.90;;;;;;6149876;23;20653;-92
2022/09/26 02:39:07;;;;;;;16.57;14.90;;;9.60;99.90;;;;;;6149323;23;20695;-93
2022/09/26 02:41:40;;;;;;;15.27;13.97;;;10.00;99.90;;;;;;6148594;22;20601;-93
2022/09/26 02:44:33;;;;;;;16.00;14.43;;;10.00;99.90;;;;;;6149171;23;20572;-94
2022/09/26 02:47:15;;;;;;;16.23;14.73;;;10.00;99.90;;;;;;6148105;23;20623;-93
2022/09/26 02:50:09;;;;;;;17.20;15.10;;;10.00;99.90;;;;;;6149316;23;20581;-94
2022/09/26 02:52:45;;;;;;;15.70;14.10;;;9.90;99.90;;;;;;6150176;23;20563;-92
2022/09/26 02:55:21;;;;;;;15.07;13.77;;;10.10;99.90;;;;;;6155856;23;20710;-92
2022/09/26 02:58:02;;;;;;;16.93;15.23;;;10.00;99.90;;;;;;6157615;23;21006;-92
2022/09/26 03:00:40;;;;;;;16.30;14.80;;;10.00;99.90;;;;;;6155305;23;20588;-94
2022/09/26 03:03:18;;;;;;;17.30;15.80;;;10.10;99.90;;;;;;6151927;23;20604;-93
2022/09/26 03:05:48;;;;;;;16.10;14.80;;;9.70;99.90;;;;;;6152164;23;21207;-94
2022/09/26 03:08:18;;;;;;;17.10;15.03;;;10.20;99.90;;;;;;6152089;23;20715;-92
2022/09/26 03:10:46;;;;;;;16.70;15.30;;;10.20;99.90;;;;;;6154121;23;20583;-94
2022/09/26 03:13:16;;;;;;;15.10;13.70;;;9.80;99.90;;;;;;6170085;23;20606;-95
2022/09/26 03:15:47;;;;;;;16.93;15.33;;;10.20;99.90;;;;;;6168841;22;20676;-93
2022/09/26 03:18:19;;;;;;;16.10;14.40;;;10.00;99.90;;;;;;6168467;23;20612;-95
2022/09/26 03:20:46;;;;;;;16.50;15.00;;;9.90;99.90;;;;;;6152997;23;20604;-95
2022/09/26 03:23:14;;;;;;;15.90;14.47;;;10.40;99.90;;;;;;6149993;23;20600;-94
2022/09/26 03:25:42;;;;;;;16.13;14.60;;;10.10;99.90;;;;;;6148291;23;20576;-93
2022/09/26 03:28:09;;;;;;;16.30;14.70;;;10.30;99.90;;;;;;6124615;23;20620;-94
2022/09/26 03:30:37;;;;;;;16.60;15.23;;;10.30;99.90;;;;;;6148692;23;20681;-94
2022/09/26 03:33:04;;;;;;;15.20;13.70;;;10.00;99.90;;;;;;6151793;23;21303;-93
2022/09/26 03:35:32;;;;;;;17.70;14.10;;;10.30;99.90;;;;;;6149923;23;20624;-93
2022/09/26 03:37:59;;;;;;;15.33;13.77;;;10.20;99.90;;;;;;6150174;23;20620;-93
2022/09/26 03:40:26;;;;;;;16.07;14.37;;;10.50;99.90;;;;;;6151290;23;20580;-94
2022/09/26 03:42:52;;;;;;;16.00;14.67;;;10.10;99.90;;;;;;6150225;23;20571;-94
2022/09/26 03:45:19;;;;;;;13.93;12.73;;;9.80;99.90;;;;;;6150566;23;20580;-93
2022/09/26 03:47:46;;;;;;;16.50;14.83;;;10.00;99.90;;;;;;6154119;23;20626;-94
2022/09/26 03:50:13;;;;;;;18.93;16.93;;;10.00;99.90;;;;;;6168718;23;20611;-93
2022/09/26 03:52:42;;;;;;;16.43;14.27;;;10.10;99.90;;;;;;6176785;23;20637;-93
2022/09/26 03:55:10;;;;;;;18.50;15.83;;;9.90;99.90;;;;;;6173039;22;20617;-92
2022/09/26 03:57:36;;;;;;;18.20;16.40;;;10.30;99.90;;;;;;6153156;23;20620;-92
2022/09/26 04:00:06;;;;;;;16.97;15.23;;;10.30;99.90;;;;;;6150039;23;20597;-93
2022/09/26 04:02:33;;;;;;;18.23;16.53;;;10.40;99.90;;;;;;6153479;23;20631;-92
2022/09/26 04:05:00;;;;;;;18.20;16.17;;;10.10;99.90;;;;;;6154812;23;20581;-93
2022/09/26 04:07:27;;;;;;;20.07;15.80;;;10.00;99.90;;;;;;6172631;22;20600;-92
2022/09/26 04:09:57;;;;;;;17.67;16.13;;;10.40;99.90;;;;;;6173652;22;20565;-93
2022/09/26 04:12:24;;;;;;;16.27;14.57;;;10.30;99.90;;;;;;6152383;23;20591;-92
2022/09/26 04:14:51;;;;;;;17.27;15.67;;;10.30;99.90;;;;;;6152542;23;20616;-92
2022/09/26 04:17:45;;;;;;;17.03;15.43;;;9.90;99.90;;;;;;6167613;22;20643;-93
2022/09/26 04:20:12;;;;;;;17.67;16.10;;;10.30;99.90;;;;;;6177168;22;20608;-92
2022/09/26 04:22:41;;;;;;;17.77;16.23;;;10.10;99.90;;;;;;6150726;22;20978;-92
2022/09/26 04:25:10;;;;;;;18.57;16.87;;;10.40;99.90;;;;;;6172318;23;20606;-93
2022/09/26 04:27:38;;;;;;;16.90;15.40;;;10.60;99.90;;;;;;6171620;22;20635;-92
2022/09/26 04:30:06;;;;;;;17.90;16.23;;;9.90;99.90;;;;;;6160396;23;21300;-93
2022/09/26 04:32:33;;;;;;;18.50;16.80;;;10.40;99.90;;;;;;6150406;23;20583;-93
2022/09/26 04:35:00;;;;;;;17.43;15.73;;;10.00;99.90;;;;;;6149874;23;20834;-92
2022/09/26 04:37:27;;;;;;;17.27;15.77;;;10.40;99.90;;;;;;6150410;23;20634;-93
2022/09/26 04:39:55;;;;;;;17.07;15.67;;;10.00;99.90;;;;;;6151269;23;20606;-93
2022/09/26 04:42:24;;;;;;;18.00;16.30;;;10.10;99.90;;;;;;6151088;23;20592;-92
2022/09/26 04:44:51;;;;;;;18.63;16.80;;;10.30;99.90;;;;;;6152189;23;20603;-92
2022/09/26 04:47:17;;;;;;;19.87;17.80;;;10.00;99.90;;;;;;6149668;23;20616;-93
2022/09/26 04:49:44;;;;;;;17.73;16.27;;;10.10;99.90;;;;;;6151285;22;20600;-92
2022/09/26 04:52:14;;;;;;;20.07;18.37;;;9.90;99.90;;;;;;6151708;23;20591;-94
2022/09/26 04:54:40;;;;;;;17.00;15.73;;;9.70;99.90;;;;;;6148839;23;20940;-92
2022/09/26 04:57:07;;;;;;;17.50;15.83;;;9.80;99.90;;;;;;6149011;23;20589;-93
2022/09/26 04:59:38;;;;;;;17.80;16.27;;;10.00;99.90;;;;;;6148200;23;20667;-93
2022/09/26 05:02:07;;;;;;;18.40;16.80;;;10.20;99.90;;;;;;6150218;23;20553;-94
2022/09/26 05:04:34;;;;;;;17.50;15.93;;;10.20;99.90;;;;;;6150135;23;20638;-93
2022/09/26 05:07:01;;;;;;;19.07;17.27;;;9.90;99.90;;;;;;6151182;23;20588;-93
2022/09/26 05:09:28;;;;;;;19.47;17.20;;;10.20;99.90;;;;;;6149573;23;20585;-92
2022/09/26 05:11:57;;;;;;;17.90;16.53;;;10.20;99.90;;;;;;6152039;23;20668;-92
2022/09/26 05:14:24;;;;;;;18.87;17.17;;;10.00;99.90;;;;;;6153149;23;21085;-92
2022/09/26 05:16:52;;;;;;;18.17;16.47;;;10.20;99.90;;;;;;6151180;23;20943;-93
2022/09/26 05:19:20;;;;;;;19.20;17.00;;;10.20;99.90;;;;;;6146265;23;20591;-92
2022/09/26 05:21:49;;;;;;;18.47;16.87;;;9.80;99.90;;;;;;6148888;23;20931;-94
2022/09/26 05:27:01;;;;;;;18.90;17.27;;;10.00;99.90;;;;;;6147839;23;20611;-93
2022/09/26 05:29:28;;;;;;;18.70;17.07;;;9.70;99.90;;;;;;6148476;23;20573;-92
2022/09/26 05:31:58;;;;;;;18.43;16.93;;;9.80;99.90;;;;;;6150096;23;20654;-93
2022/09/26 05:34:26;;;;;;;19.83;18.00;;;10.00;99.90;;;;;;6151107;23;20615;-93
2022/09/26 05:36:54;;;;;;;19.33;17.33;;;9.60;99.90;;;;;;6151672;23;20637;-91
2022/09/26 05:42:07;;;;;;;17.77;16.30;;;9.60;99.90;;;;;;6174291;23;20513;-91
2022/09/26 05:44:39;;;;;;;18.10;16.40;;;10.00;99.90;;;;;;6173640;23;20592;-90
2022/09/26 05:47:09;;;;;;;17.87;16.23;;;10.00;99.90;;;;;;6179351;23;20514;-91
2022/09/26 05:49:37;;;;;;;18.27;16.50;;;9.60;99.90;;;;;;6160323;23;20596;-91
2022/09/26 05:52:05;;;;;;;17.83;16.37;;;10.00;99.90;;;;;;6149368;23;20588;-91
2022/09/26 05:54:32;;;;;;;19.40;17.50;;;10.20;99.90;;;;;;6147680;23;20628;-91
2022/09/26 05:56:59;;;;;;;17.93;16.30;;;9.70;99.90;;;;;;6147398;23;20904;-90
2022/09/26 05:59:26;;;;;;;16.60;15.40;;;10.00;99.90;;;;;;6147080;23;20576;-91
2022/09/26 06:01:53;;;;;;;17.53;15.80;;;10.00;99.90;;;;;;6146989;23;20639;-90
2022/09/26 06:04:22;;;;;;;17.33;15.60;;;9.60;99.90;;;;;;6147142;23;21112;-91
2022/09/26 06:06:50;;;;;;;17.67;16.23;;;9.80;99.90;;;;;;6147530;22;21120;-92
2022/09/26 06:09:17;;;;;;;17.27;15.77;;;10.10;99.90;;;;;;6155394;22;20608;-92
2022/09/26 06:11:44;;;;;;;17.53;16.10;;;9.70;99.90;;;;;;6155192;22;20646;-91
2022/09/26 06:14:11;;;;;;;17.40;16.00;;;9.80;99.90;;;;;;6147930;23;20598;-90
2022/09/26 06:16:38;;;;;;;18.97;17.47;;;10.20;99.90;;;;;;6147697;23;20592;-93
2022/09/26 06:19:05;;;;;;;16.57;15.23;;;10.30;99.90;;;;;;6145795;23;21073;-93
2022/09/26 06:21:34;;;;;;;17.97;16.57;;;10.40;99.90;;;;;;6148175;23;20743;-91
2022/09/26 06:24:01;;;;;;;18.07;16.17;;;10.40;99.90;;;;;;6149541;23;20998;-91
2022/09/26 06:26:29;;;;;;;17.83;16.43;;;10.50;99.90;;;;;;6152301;23;20667;-91
2022/09/26 06:28:58;;;;;;;18.57;16.87;;;10.60;99.90;;;;;;6155590;23;20669;-92
2022/09/26 06:31:27;;;;;;;15.90;14.60;;;10.60;99.90;;;;;;6154287;23;20815;-91
2022/09/26 06:33:55;;;;;;;16.20;14.90;;;10.50;99.90;;;;;;6149408;23;21096;-92
2022/09/26 06:36:23;;;;;;;14.60;13.50;;;10.70;99.90;;;;;;6152435;23;20620;-92
2022/09/26 06:38:53;;;;;;;14.00;12.67;;;11.10;99.90;;;;;;6152897;23;20976;-92
2022/09/26 06:41:20;;;;;;;13.37;12.13;;;10.60;99.90;;;;;;6153265;23;20583;-93
2022/09/26 06:43:48;;;;;;;12.97;11.67;;;10.40;99.90;;;;;;6149505;23;21148;-91
2022/09/26 06:46:16;;;;;;;13.47;12.27;;;11.00;99.90;;;;;;6149253;23;20652;-91
2022/09/26 06:48:43;;;;;;;10.33;9.50;;;11.10;99.90;;;;;;6149805;23;20719;-92
2022/09/26 06:51:13;;;;;;;13.07;11.87;;;10.50;99.90;;;;;;6159061;23;20592;-93
2022/09/26 06:53:41;;;;;;;11.70;10.80;;;10.60;99.90;;;;;;6156859;23;20672;-91
2022/09/26 06:56:14;;;;;;;9.73;9.00;;;10.70;99.90;;;;;;6147912;23;20677;-91
2022/09/26 06:58:41;;;;;;;10.17;9.37;;;10.60;99.90;;;;;;6149296;23;20598;-91
2022/09/26 07:01:09;;;;;;;9.97;9.20;;;10.50;99.90;;;;;;6150605;23;20576;-92
2022/09/26 07:03:39;;;;;;;9.67;8.87;;;11.00;99.90;;;;;;6149694;23;20584;-93
2022/09/26 07:06:07;;;;;;;8.03;7.43;;;11.00;99.90;;;;;;6149629;23;20634;-92
2022/09/26 07:08:34;;;;;;;9.10;6.90;;;10.90;99.90;;;;;;6156898;23;21248;-92
2022/09/26 07:11:01;;;;;;;7.07;6.50;;;11.20;99.90;;;;;;6174409;22;20647;-92
2022/09/26 07:13:31;;;;;;;7.43;6.87;;;11.90;99.90;;;;;;6175462;22;20592;-92
2022/09/26 07:15:58;;;;;;;7.93;7.13;;;11.80;99.90;;;;;;6164479;22;21169;-92
2022/09/26 07:18:25;;;;;;;7.20;6.60;;;11.60;99.90;;;;;;6157781;22;20640;-92
2022/09/26 07:20:52;;;;;;;6.67;6.17;;;11.70;99.90;;;;;;6148148;23;20592;-91
2022/09/26 07:23:19;;;;;;;9.30;6.87;;;11.40;99.90;;;;;;6148362;23;20585;-90
2022/09/26 07:25:47;;;;;;;6.33;5.73;;;11.90;99.90;;;;;;6148033;23;20595;-93
2022/09/26 07:28:14;;;;;;;6.63;6.13;;;12.10;99.90;;;;;;6151536;23;20700;-93
2022/09/26 07:30:42;;;;;;;6.73;6.13;;;11.80;99.90;;;;;;6163650;23;20631;-91
2022/09/26 07:33:09;;;;;;;7.93;6.17;;;12.10;99.90;;;;;;6171789;23;20610;-93
2022/09/26 07:35:37;;;;;;;7.30;5.10;;;11.80;99.90;;;;;;6168859;23;20618;-95
2022/09/26 07:38:05;;;;;;;5.73;5.30;;;11.70;99.90;;;;;;6165498;23;20615;-93
2022/09/26 07:40:32;;;;;;;6.07;5.67;;;12.60;99.90;;;;;;6154148;23;20946;-92
2022/09/26 07:43:00;;;;;;;5.67;5.13;;;12.50;99.90;;;;;;6148760;23;20580;-93
2022/09/26 07:50:57;;;;;;;4.83;4.53;;;12.80;99.90;;;;;;6146766;23;20912;-92
2022/09/26 07:53:25;;;;;;;5.10;4.60;;;12.80;99.90;;;;;;6148590;23;20575;-91
2022/09/26 07:56:09;;;;;;;6.93;4.83;;;13.00;99.90;;;;;;6148270;23;20624;-91
2022/09/26 07:58:38;;;;;;;5.77;4.20;;;12.80;99.90;;;;;;6148115;23;21092;-91
2022/09/26 08:01:10;;;;;;;3.97;3.60;;;12.80;99.90;;;;;;6148330;23;20603;-91
2022/09/26 08:03:39;;;;;;;5.17;4.30;;;13.00;99.90;;;;;;6147688;23;20660;-91
2022/09/26 08:06:06;;;;;;;3.40;3.20;;;13.10;99.90;;;;;;6145531;22;20596;-91
2022/09/26 08:08:37;;;;;;;3.30;3.10;;;13.00;99.90;;;;;;6149641;23;20598;-91
2022/09/26 08:11:04;;;;;;;3.53;3.23;;;12.90;99.90;;;;;;6164764;22;20575;-91
2022/09/26 08:13:33;;;;;;;3.37;2.97;;;13.10;99.90;;;;;;6167616;22;20588;-92
2022/09/26 08:16:03;;;;;;;5.50;2.73;;;12.90;99.90;;;;;;6147267;23;20679;-91
2022/09/26 08:18:30;;;;;;;2.87;2.57;;;13.10;99.90;;;;;;6147286;23;20557;-91
2022/09/26 08:20:58;;;;;;;3.40;3.10;;;13.10;99.90;;;;;;6147916;23;20580;-91
2022/09/26 08:23:25;;;;;;;5.50;3.23;;;12.70;99.90;;;;;;6148031;23;20581;-91
2022/09/26 08:25:51;;;;;;;4.43;3.30;;;12.80;99.90;;;;;;6147330;23;20609;-90
2022/09/26 08:28:18;;;;;;;3.70;3.40;;;13.60;99.90;;;;;;6147957;23;20572;-92
2022/09/26 08:30:45;;;;;;;2.70;2.50;;;13.90;99.90;;;;;;6147430;23;20561;-91
2022/09/26 08:33:22;;;;;;;2.27;2.17;;;13.90;99.90;;;;;;6150875;23;20785;-91
2022/09/26 08:35:49;;;;;;;2.13;1.90;;;14.00;99.90;;;;;;6165665;23;20593;-92
2022/09/26 08:38:17;;;;;;;3.27;2.37;;;14.60;99.90;;;;;;6171679;22;20565;-92
2022/09/26 08:40:54;;;;;;;2.50;2.00;;;14.50;99.90;;;;;;6170664;23;20703;-91
2022/09/26 08:43:34;;;;;;;2.93;2.43;;;13.50;99.90;;;;;;6169938;23;20603;-91
2022/09/26 08:46:35;;;;;;;2.93;2.47;;;13.60;99.90;;;;;;6171723;22;20716;-93
2022/09/26 08:49:24;;;;;;;3.20;2.83;;;13.70;99.90;;;;;;6172951;22;20618;-93
2022/09/26 08:51:54;;;;;;;5.23;2.23;;;14.10;99.90;;;;;;6173161;23;20585;-92
2022/09/26 08:54:32;;;;;;;3.73;2.90;;;14.20;99.90;;;;;;6172565;22;20592;-93
2022/09/26 08:57:05;;;;;;;4.63;2.30;;;14.60;99.90;;;;;;6173952;22;20662;-93
2022/09/26 08:59:39;;;;;;;2.60;2.40;;;14.60;99.90;;;;;;6166004;22;20652;-89
2022/09/26 09:02:17;;;;;;;2.20;2.10;;;14.40;99.90;;;;;;6158307;23;20556;-90
2022/09/26 09:04:58;;;;;;;2.97;2.50;;;14.00;99.90;;;;;;6154815;23;20522;-90
2022/09/26 09:07:26;;;;;;;3.23;2.47;;;14.20;99.90;;;;;;6156020;23;20612;-89
2022/09/26 09:10:08;;;;;;;5.83;3.00;;;14.10;99.90;;;;;;6152492;23;20593;-90
2022/09/26 09:12:50;;;;;;;4.60;2.83;;;14.20;99.90;;;;;;6162203;22;20605;-92
2022/09/26 09:15:30;;;;;;;4.50;2.60;;;14.30;99.90;;;;;;6158720;23;20563;-91
2022/09/26 09:18:20;;;;;;;3.43;3.13;;;14.50;99.90;;;;;;6149814;23;20622;-92
2022/09/26 09:21:23;;;;;;;4.10;2.87;;;14.80;99.90;;;;;;6164840;23;20586;-92
2022/09/26 09:24:20;;;;;;;3.93;3.63;;;14.20;99.90;;;;;;6176551;22;20637;-92
2022/09/26 09:27:01;;;;;;;5.03;2.93;;;14.20;99.90;;;;;;6176469;22;20623;-92
2022/09/26 09:29:59;;;;;;;5.07;3.20;;;14.30;99.90;;;;;;6171409;22;20597;-90
2022/09/26 09:32:31;;;;;;;3.77;2.63;;;14.70;99.90;;;;;;6132607;23;20580;-90
2022/09/26 09:34:58;;;;;;;2.43;2.10;;;15.00;99.90;;;;;;6165712;23;20939;-91
2022/09/26 09:37:30;;;;;;;4.40;2.37;;;15.40;99.90;;;;;;6166005;23;20655;-91
2022/09/26 09:39:57;;;;;;;3.47;2.20;;;15.40;99.90;;;;;;6171197;22;20599;-91
2022/09/26 09:42:33;;;;;;;4.90;2.00;;;15.20;99.90;;;;;;6151348;23;20647;-89
2022/09/26 09:45:05;;;;;;;4.27;2.13;;;15.10;99.90;;;;;;6146625;23;20563;-91
2022/09/26 09:47:39;;;;;;;2.90;1.93;;;14.80;99.90;;;;;;6146403;23;21229;-90
2022/09/26 09:50:13;;;;;;;4.73;1.93;;;15.30;99.90;;;;;;6145706;23;20517;-91
2022/09/26 09:52:54;;;;;;;3.83;2.00;;;15.50;99.90;;;;;;6147658;23;20552;-91
2022/09/26 09:55:35;;;;;;;2.20;1.60;;;15.90;99.90;;;;;;6150512;23;20548;-93
2022/09/26 09:58:16;;;;;;;2.93;1.80;;;16.30;99.90;;;;;;6158088;23;20557;-90
2022/09/26 10:00:51;;;;;;;3.03;1.80;;;17.00;99.90;;;;;;6165402;23;20559;-91
2022/09/26 10:03:30;;;;;;;1.70;1.60;;;17.60;99.90;;;;;;6156167;23;20560;-89
2022/09/26 10:06:08;;;;;;;2.87;1.47;;;17.70;99.90;;;;;;6168836;22;21153;-93
2022/09/26 10:08:40;;;;;;;2.57;1.63;;;17.00;99.90;;;;;;6168911;23;20594;-92
2022/09/26 10:11:21;;;;;;;2.30;1.70;;;17.50;99.90;;;;;;6159663;23;21301;-92
2022/09/26 10:13:58;;;;;;;4.00;2.60;;;17.40;99.90;;;;;;6146851;23;20580;-94
2022/09/26 10:16:25;;;;;;;1.33;1.23;;;17.20;99.90;;;;;;6152064;23;20623;-91
2022/09/26 10:18:59;;;;;;;6.20;1.83;;;17.70;99.90;;;;;;6147043;23;20553;-93
2022/09/26 10:21:31;;;;;;;2.40;1.30;;;17.90;99.90;;;;;;6147912;23;20553;-93
2022/09/26 10:24:02;;;;;;;1.30;1.20;;;18.30;99.90;;;;;;6148882;23;20614;-93
2022/09/26 10:26:34;;;;;;;3.67;1.70;;;17.70;99.90;;;;;;6152465;23;21324;-93
2022/09/26 10:29:33;;;;;;;1.70;1.40;;;17.40;99.90;;;;;;6163884;23;20601;-95
2022/09/26 10:32:01;;;;;;;1.60;1.50;;;16.70;99.90;;;;;;6152257;23;20560;-91
2022/09/26 10:34:30;;;;;;;1.53;1.43;;;16.60;99.90;;;;;;6148433;22;20600;-93
2022/09/26 10:37:21;;;;;;;2.17;1.73;;;15.70;99.90;;;;;;6148282;23;20637;-94
2022/09/26 10:42:38;;;;;;;3.80;1.40;;;16.70;99.90;;;;;;6148785;23;20516;-94
2022/09/26 10:45:14;;;;;;;1.50;1.20;;;17.30;99.90;;;;;;6147863;23;20876;-94
2022/09/26 10:47:51;;;;;;;2.27;1.53;;;18.10;99.90;;;;;;6148322;23;20612;-94
2022/09/26 10:50:26;;;;;;;1.87;1.30;;;18.30;99.90;;;;;;6148395;23;20573;-93
2022/09/26 10:53:01;;;;;;;2.80;1.40;;;19.10;99.90;;;;;;6152766;23;20556;-95
2022/09/26 10:55:35;;;;;;;1.37;1.27;;;19.50;96.50;;;;;;6159328;23;20623;-94
2022/09/26 10:58:06;;;;;;;1.40;1.17;;;19.70;89.60;;;;;;6157351;22;20593;-94
2022/09/26 11:00:42;;;;;;;1.17;1.07;;;21.50;85.50;;;;;;6153049;23;20683;-94
2022/09/26 11:03:15;;;;;;;1.90;1.40;;;21.10;77.00;;;;;;6149062;23;20584;-95
2022/09/26 11:06:00;;;;;;;1.67;1.57;;;20.60;78.70;;;;;;6149425;23;20623;-94
2022/09/26 11:08:30;;;;;;;1.67;1.57;;;19.90;85.60;;;;;;6159439;22;21453;-95
2022/09/26 11:10:59;;;;;;;1.70;1.30;;;18.50;92.60;;;;;;6151614;23;20564;-95
2022/09/26 11:26:39;;;;;;;2.07;1.17;;;20.20;84.80;;;;;;6118383;22;21705;-95
2022/09/26 11:31:54;;;;;;;1.13;0.97;;;21.50;68.70;;;;;;6171394;22;20647;-95
2022/09/26 11:34:52;;;;;;;1.20;0.90;;;19.90;72.10;;;;;;6175769;22;20863;-96
2022/09/26 11:40:33;;;;;;;2.60;0.90;;;18.30;84.60;;;;;;6168393;22;20638;-92
2022/09/26 11:43:18;;;;;;;2.00;1.07;;;18.00;88.10;;;;;;6159283;23;20584;-96
2022/09/26 11:46:05;;;;;;;1.57;1.13;;;17.60;89.20;;;;;;6162891;22;20698;-94
2022/09/26 11:49:00;;;;;;;0.93;0.90;;;17.10;91.50;;;;;;6157807;23;20565;-93
2022/09/26 11:51:45;;;;;;;3.13;1.10;;;17.00;93.70;;;;;;6150616;23;20620;-94
2022/09/26 11:58:01;;;;;;;0.63;0.60;;;19.20;79.10;;;;;;6145971;22;20674;-95
2022/09/26 12:03:32;;;;;;;1.40;0.67;;;20.80;68.80;;;;;;6162700;22;20673;-94
2022/09/26 12:06:03;;;;;;;2.00;0.97;;;21.10;65.70;;;;;;6163473;22;21123;-93
2022/09/26 12:14:15;;;;;;;1.57;0.70;;;22.00;61.10;;;;;;6170615;22;20620;-95
2022/09/26 12:16:51;;;;;;;1.93;1.07;;;21.00;63.20;;;;;;6177470;22;20577;-95
2022/09/26 12:19:36;;;;;;;0.93;0.87;;;20.40;67.80;;;;;;6176065;22;20568;-95
2022/09/26 12:22:31;;;;;;;3.33;0.70;;;20.10;65.20;;;;;;6176047;22;20679;-95
2022/09/26 12:25:17;;;;;;;1.13;0.60;;;18.70;67.30;;;;;;6173172;23;20589;-94
2022/09/26 12:27:58;;;;;;;0.90;0.70;;;19.10;74.80;;;;;;6168950;23;20615;-96
2022/09/26 12:30:48;;;;;;;1.43;0.90;;;19.40;74.20;;;;;;6164693;23;20557;-94
2022/09/26 12:33:46;;;;;;;1.33;0.80;;;19.10;78.40;;;;;;6170849;22;20918;-95
2022/09/26 12:36:22;;;;;;;1.10;0.70;;;21.20;72.50;;;;;;6170776;22;20701;-95
2022/09/26 12:39:03;;;;;;;7.20;2.03;;;23.10;65.20;;;;;;6162700;23;20592;-94
2022/09/26 12:41:51;;;;;;;1.30;0.80;;;24.40;59.00;;;;;;6163567;22;20624;-94
2022/09/26 12:44:41;;;;;;;2.00;0.90;;;24.50;57.10;;;;;;6162609;23;20592;-94
2022/09/26 12:47:33;;;;;;;1.47;0.73;;;24.40;55.00;;;;;;6155328;23;20675;-94
2022/09/26 12:50:29;;;;;;;2.47;2.27;;;21.30;55.90;;;;;;6153733;23;21037;-94
2022/09/26 12:53:43;;;;;;;1.60;0.67;;;20.20;61.30;;;;;;6157124;23;20604;-94
2022/09/26 12:56:22;;;;;;;1.60;0.70;;;19.10;65.30;;;;;;6120479;23;20593;-94
2022/09/26 13:05:21;;;;;;;1.17;0.70;;;17.40;74.40;;;;;;6170877;23;20596;-95
2022/09/26 13:08:18;;;;;;;1.23;0.60;;;17.20;80.40;;;;;;6169268;22;20601;-95
2022/09/26 13:10:56;;;;;;;1.37;0.60;;;16.80;85.00;;;;;;6169434;23;20602;-94
2022/09/26 13:14:13;;;;;;;1.10;1.10;;;16.90;89.10;;;;;;6174085;23;20632;-96
2022/09/26 13:23:26;;;;;;;1.23;1.13;;;16.30;97.30;;;;;;6176398;22;20535;-94
2022/09/26 13:25:58;;;;;;;4.93;1.07;;;16.20;97.00;;;;;;6175986;22;20588;-95
2022/09/26 13:38:55;;;;;;;1.27;0.70;;;14.80;99.90;;;;;;6140728;22;20604;-95
2022/09/26 13:41:45;;;;;;;0.97;0.70;;;14.80;99.90;;;;;;6139704;23;20553;-96
2022/09/26 13:44:27;;;;;;;0.83;0.50;;;14.40;99.90;;;;;;6139692;23;20555;-96
2022/09/26 13:47:06;;;;;;;3.03;0.70;;;14.50;99.90;;;;;;6142049;23;20601;-95
2022/09/26 13:49:49;;;;;;;2.10;0.77;;;14.70;99.90;;;;;;6138602;23;20546;-96
2022/09/26 13:52:45;;;;;;;0.80;0.80;;;15.20;99.90;;;;;;6131130;23;20617;-96
2022/09/26 13:56:13;;;;;;;0.93;0.50;;;16.60;99.90;;;;;;6133676;23;21106;-95
2022/09/26 13:58:40;;;;;;;0.47;0.40;;;18.20;95.10;;;;;;6130791;23;20580;-96
2022/09/26 14:01:27;;;;;;;1.43;0.50;;;18.90;90.30;;;;;;6131699;23;20651;-96
2022/09/26 14:04:32;;;;;;;1.63;0.60;;;18.10;91.40;;;;;;6133281;23;20909;-96
2022/09/26 14:09:58;;;;;;;1.60;0.70;;;19.20;81.90;;;;;;6146038;22;20573;-94
2022/09/26 14:12:58;;;;;;;2.00;0.53;;;18.10;87.10;;;;;;6146791;22;20692;-96
2022/09/26 14:16:03;;;;;;;1.37;0.60;;;17.90;87.30;;;;;;6147077;22;20601;-95
2022/09/26 14:18:55;;;;;;;0.83;0.60;;;18.00;90.30;;;;;;6116474;22;20648;-96
2022/09/26 14:22:01;;;;;;;0.93;0.57;;;18.60;90.40;;;;;;6141655;22;20613;-95
2022/09/26 14:24:56;;;;;;;2.47;0.77;;;19.20;83.10;;;;;;6140568;23;20549;-95